sensor_id;sensor_type;location;lat;lon;timestamp;P1;durP1;ratioP1;P2;durP2;ratioP2
40076;SDS011;25777;47.824;18.982;2024-01-15T00:02:08;33.50;;;11.67;;
40076;SDS011;25777;47.824;18.982;2024-01-15T00:04:38;31.17;;;12.63;;
40076;SDS011;25777;47.824;18.982;2024-01-15T00:07:05;33.97;;;12.50;;
40076;SDS011;25777;47.824;18.982;2024-01-15T00:09:31;33.10;;;12.53;;
40076;SDS011;25777;47.824;18.982;2024-01-15T00:11:58;34.17;;;12.47;;
40076;SDS011;25777;47.824;18.982;2024-01-15T00:14:25;28.03;;;12.00;;
40076;SDS011;25777;47.824;18.982;2024-01-15T00:16:51;30.73;;;12.20;;
40076;SDS011;25777;47.824;18.982;2024-01-15T00:19:17;32.20;;;12.83;;
40076;SDS011;25777;47.824;18.982;2024-01-15T00:21:43;36.57;;;12.60;;
40076;SDS011;25777;47.824;18.982;2024-01-15T00:24:09;31.40;;;12.13;;
40076;SDS011;25777;47.824;18.982;2024-01-15T00:26:35;32.93;;;12.47;;
40076;SDS011;25777;47.824;18.982;2024-01-15T00:29:01;36.93;;;13.60;;
40076;SDS011;25777;47.824;18.982;2024-01-15T00:31:28;29.70;;;12.73;;
40076;SDS011;25777;47.824;18.982;2024-01-15T00:33:55;33.97;;;13.20;;
40076;SDS011;25777;47.824;18.982;2024-01-15T00:36:21;37.87;;;13.43;;
40076;SDS011;25777;47.824;18.982;2024-01-15T00:38:47;33.93;;;13.40;;
40076;SDS011;25777;47.824;18.982;2024-01-15T00:41:13;33.40;;;13.43;;
40076;SDS011;25777;47.824;18.982;2024-01-15T00:43:39;31.90;;;12.80;;
40076;SDS011;25777;47.824;18.982;2024-01-15T00:46:05;31.00;;;11.47;;
40076;SDS011;25777;47.824;18.982;2024-01-15T00:48:31;30.40;;;11.70;;
40076;SDS011;25777;47.824;18.982;2024-01-15T00:50:57;31.27;;;12.47;;
40076;SDS011;25777;47.824;18.982;2024-01-15T00:53:23;33.97;;;13.37;;
40076;SDS011;25777;47.824;18.982;2024-01-15T00:55:50;34.60;;;12.17;;
40076;SDS011;25777;47.824;18.982;2024-01-15T00:58:16;31.27;;;13.33;;
40076;SDS011;25777;47.824;18.982;2024-01-15T01:00:42;28.20;;;11.27;;
40076;SDS011;25777;47.824;18.982;2024-01-15T01:03:08;34.27;;;13.57;;
40076;SDS011;25777;47.824;18.982;2024-01-15T01:05:34;35.47;;;13.10;;
40076;SDS011;25777;47.824;18.982;2024-01-15T01:08:00;35.07;;;13.70;;
40076;SDS011;25777;47.824;18.982;2024-01-15T01:10:26;31.43;;;12.47;;
40076;SDS011;25777;47.824;18.982;2024-01-15T01:12:52;29.00;;;12.30;;
40076;SDS011;25777;47.824;18.982;2024-01-15T01:15:18;36.23;;;13.53;;
40076;SDS011;25777;47.824;18.982;2024-01-15T01:17:43;36.00;;;13.10;;
40076;SDS011;25777;47.824;18.982;2024-01-15T01:20:09;37.60;;;12.40;;
40076;SDS011;25777;47.824;18.982;2024-01-15T01:22:35;31.27;;;11.73;;
40076;SDS011;25777;47.824;18.982;2024-01-15T01:25:01;36.27;;;12.63;;
40076;SDS011;25777;47.824;18.982;2024-01-15T01:27:27;31.67;;;11.90;;
40076;SDS011;25777;47.824;18.982;2024-01-15T01:29:53;32.97;;;12.37;;
40076;SDS011;25777;47.824;18.982;2024-01-15T01:32:19;33.20;;;12.50;;
40076;SDS011;25777;47.824;18.982;2024-01-15T01:34:45;35.23;;;13.03;;
40076;SDS011;25777;47.824;18.982;2024-01-15T01:37:11;32.73;;;12.43;;
40076;SDS011;25777;47.824;18.982;2024-01-15T01:39:40;30.13;;;12.77;;
40076;SDS011;25777;47.824;18.982;2024-01-15T01:42:07;31.43;;;11.83;;
40076;SDS011;25777;47.824;18.982;2024-01-15T01:44:33;38.70;;;12.37;;
40076;SDS011;25777;47.824;18.982;2024-01-15T01:46:59;40.13;;;13.37;;
40076;SDS011;25777;47.824;18.982;2024-01-15T01:49:28;33.13;;;13.27;;
40076;SDS011;25777;47.824;18.982;2024-01-15T01:51:56;44.23;;;14.57;;
40076;SDS011;25777;47.824;18.982;2024-01-15T01:54:23;35.43;;;12.23;;
40076;SDS011;25777;47.824;18.982;2024-01-15T01:56:51;30.83;;;12.23;;
40076;SDS011;25777;47.824;18.982;2024-01-15T01:59:17;41.00;;;15.27;;
40076;SDS011;25777;47.824;18.982;2024-01-15T02:01:44;39.33;;;14.07;;
40076;SDS011;25777;47.824;18.982;2024-01-15T02:04:10;32.53;;;13.37;;
40076;SDS011;25777;47.824;18.982;2024-01-15T02:06:37;40.90;;;14.23;;
40076;SDS011;25777;47.824;18.982;2024-01-15T02:09:03;35.70;;;13.23;;
40076;SDS011;25777;47.824;18.982;2024-01-15T02:11:30;36.13;;;13.37;;
40076;SDS011;25777;47.824;18.982;2024-01-15T02:13:56;34.17;;;13.13;;
40076;SDS011;25777;47.824;18.982;2024-01-15T02:16:22;35.33;;;14.07;;
40076;SDS011;25777;47.824;18.982;2024-01-15T02:18:48;36.10;;;13.77;;
40076;SDS011;25777;47.824;18.982;2024-01-15T02:21:14;40.10;;;15.00;;
40076;SDS011;25777;47.824;18.982;2024-01-15T02:23:39;39.07;;;14.93;;
40076;SDS011;25777;47.824;18.982;2024-01-15T02:26:05;38.77;;;15.20;;
40076;SDS011;25777;47.824;18.982;2024-01-15T02:28:32;40.33;;;14.97;;
40076;SDS011;25777;47.824;18.982;2024-01-15T02:30:59;40.17;;;14.13;;
40076;SDS011;25777;47.824;18.982;2024-01-15T02:33:25;39.20;;;14.70;;
40076;SDS011;25777;47.824;18.982;2024-01-15T02:35:50;43.70;;;15.67;;
40076;SDS011;25777;47.824;18.982;2024-01-15T02:38:16;38.13;;;13.93;;
40076;SDS011;25777;47.824;18.982;2024-01-15T02:40:45;44.37;;;15.87;;
40076;SDS011;25777;47.824;18.982;2024-01-15T02:43:12;41.20;;;14.20;;
40076;SDS011;25777;47.824;18.982;2024-01-15T02:45:38;37.67;;;15.30;;
40076;SDS011;25777;47.824;18.982;2024-01-15T02:48:04;39.40;;;15.93;;
40076;SDS011;25777;47.824;18.982;2024-01-15T02:50:31;45.47;;;15.77;;
40076;SDS011;25777;47.824;18.982;2024-01-15T02:52:56;42.60;;;14.93;;
40076;SDS011;25777;47.824;18.982;2024-01-15T02:55:22;43.23;;;14.93;;
40076;SDS011;25777;47.824;18.982;2024-01-15T02:57:48;40.03;;;14.97;;
40076;SDS011;25777;47.824;18.982;2024-01-15T03:00:14;40.00;;;14.83;;
40076;SDS011;25777;47.824;18.982;2024-01-15T03:02:40;39.60;;;16.03;;
40076;SDS011;25777;47.824;18.982;2024-01-15T03:05:08;38.30;;;14.40;;
40076;SDS011;25777;47.824;18.982;2024-01-15T03:07:37;43.97;;;15.80;;
40076;SDS011;25777;47.824;18.982;2024-01-15T03:10:04;41.60;;;15.07;;
40076;SDS011;25777;47.824;18.982;2024-01-15T03:12:31;36.67;;;14.87;;
40076;SDS011;25777;47.824;18.982;2024-01-15T03:14:57;35.33;;;15.13;;
40076;SDS011;25777;47.824;18.982;2024-01-15T03:17:23;40.40;;;15.47;;
40076;SDS011;25777;47.824;18.982;2024-01-15T03:19:49;45.57;;;16.63;;
40076;SDS011;25777;47.824;18.982;2024-01-15T03:22:15;44.93;;;16.43;;
40076;SDS011;25777;47.824;18.982;2024-01-15T03:24:41;52.03;;;17.43;;
40076;SDS011;25777;47.824;18.982;2024-01-15T03:27:07;41.23;;;16.03;;
40076;SDS011;25777;47.824;18.982;2024-01-15T03:29:33;44.30;;;16.37;;
40076;SDS011;25777;47.824;18.982;2024-01-15T03:31:59;43.00;;;16.40;;
40076;SDS011;25777;47.824;18.982;2024-01-15T03:34:24;47.70;;;16.30;;
40076;SDS011;25777;47.824;18.982;2024-01-15T03:36:50;48.70;;;18.07;;
40076;SDS011;25777;47.824;18.982;2024-01-15T03:39:16;47.53;;;17.13;;
40076;SDS011;25777;47.824;18.982;2024-01-15T03:41:42;59.53;;;19.03;;
40076;SDS011;25777;47.824;18.982;2024-01-15T03:44:07;69.60;;;20.27;;
40076;SDS011;25777;47.824;18.982;2024-01-15T03:46:33;61.93;;;19.47;;
40076;SDS011;25777;47.824;18.982;2024-01-15T03:48:59;66.37;;;19.77;;
40076;SDS011;25777;47.824;18.982;2024-01-15T03:51:25;62.20;;;20.53;;
40076;SDS011;25777;47.824;18.982;2024-01-15T03:53:50;65.57;;;20.13;;
40076;SDS011;25777;47.824;18.982;2024-01-15T03:56:16;77.30;;;21.20;;
40076;SDS011;25777;47.824;18.982;2024-01-15T03:58:42;65.40;;;22.33;;
40076;SDS011;25777;47.824;18.982;2024-01-15T04:01:11;69.53;;;22.57;;
40076;SDS011;25777;47.824;18.982;2024-01-15T04:03:37;73.57;;;21.43;;
40076;SDS011;25777;47.824;18.982;2024-01-15T04:06:05;68.60;;;23.10;;
40076;SDS011;25777;47.824;18.982;2024-01-15T04:08:31;68.10;;;20.53;;
40076;SDS011;25777;47.824;18.982;2024-01-15T04:10:57;72.33;;;21.60;;
40076;SDS011;25777;47.824;18.982;2024-01-15T04:13:22;69.90;;;22.60;;
40076;SDS011;25777;47.824;18.982;2024-01-15T04:15:48;60.97;;;19.83;;
40076;SDS011;25777;47.824;18.982;2024-01-15T04:18:15;63.03;;;21.97;;
40076;SDS011;25777;47.824;18.982;2024-01-15T04:20:43;62.47;;;20.00;;
40076;SDS011;25777;47.824;18.982;2024-01-15T04:23:08;49.13;;;18.67;;
40076;SDS011;25777;47.824;18.982;2024-01-15T04:25:34;45.67;;;17.83;;
40076;SDS011;25777;47.824;18.982;2024-01-15T04:28:00;53.53;;;18.70;;
40076;SDS011;25777;47.824;18.982;2024-01-15T04:30:26;51.40;;;17.97;;
40076;SDS011;25777;47.824;18.982;2024-01-15T04:32:52;47.13;;;19.10;;
40076;SDS011;25777;47.824;18.982;2024-01-15T04:35:18;55.00;;;18.47;;
40076;SDS011;25777;47.824;18.982;2024-01-15T04:37:43;50.13;;;18.40;;
40076;SDS011;25777;47.824;18.982;2024-01-15T04:40:09;47.00;;;18.87;;
40076;SDS011;25777;47.824;18.982;2024-01-15T04:42:36;48.17;;;18.07;;
40076;SDS011;25777;47.824;18.982;2024-01-15T04:45:01;51.60;;;19.20;;
40076;SDS011;25777;47.824;18.982;2024-01-15T04:47:28;44.03;;;17.40;;
40076;SDS011;25777;47.824;18.982;2024-01-15T04:49:54;50.30;;;18.73;;
40076;SDS011;25777;47.824;18.982;2024-01-15T04:52:20;46.90;;;19.27;;
40076;SDS011;25777;47.824;18.982;2024-01-15T04:54:45;49.20;;;18.47;;
40076;SDS011;25777;47.824;18.982;2024-01-15T04:57:11;50.00;;;17.50;;
40076;SDS011;25777;47.824;18.982;2024-01-15T04:59:37;47.53;;;16.77;;
40076;SDS011;25777;47.824;18.982;2024-01-15T05:02:03;47.50;;;18.17;;
40076;SDS011;25777;47.824;18.982;2024-01-15T05:04:28;51.33;;;18.20;;
40076;SDS011;25777;47.824;18.982;2024-01-15T05:06:55;48.30;;;18.37;;
40076;SDS011;25777;47.824;18.982;2024-01-15T05:09:21;53.30;;;19.33;;
40076;SDS011;25777;47.824;18.982;2024-01-15T05:11:47;41.87;;;17.07;;
40076;SDS011;25777;47.824;18.982;2024-01-15T05:14:12;42.73;;;18.53;;
40076;SDS011;25777;47.824;18.982;2024-01-15T05:16:38;45.50;;;18.40;;
40076;SDS011;25777;47.824;18.982;2024-01-15T05:19:05;51.50;;;19.07;;
40076;SDS011;25777;47.824;18.982;2024-01-15T05:21:32;47.83;;;18.73;;
40076;SDS011;25777;47.824;18.982;2024-01-15T05:23:58;44.50;;;17.20;;
40076;SDS011;25777;47.824;18.982;2024-01-15T05:26:24;59.03;;;18.97;;
40076;SDS011;25777;47.824;18.982;2024-01-15T05:28:49;46.83;;;18.57;;
40076;SDS011;25777;47.824;18.982;2024-01-15T05:31:15;50.40;;;17.60;;
40076;SDS011;25777;47.824;18.982;2024-01-15T05:33:41;50.23;;;18.27;;
40076;SDS011;25777;47.824;18.982;2024-01-15T05:36:07;54.60;;;19.00;;
40076;SDS011;25777;47.824;18.982;2024-01-15T05:38:33;54.47;;;19.00;;
40076;SDS011;25777;47.824;18.982;2024-01-15T05:40:58;67.80;;;22.43;;
40076;SDS011;25777;47.824;18.982;2024-01-15T05:43:24;83.23;;;26.17;;
40076;SDS011;25777;47.824;18.982;2024-01-15T05:45:50;81.73;;;27.40;;
40076;SDS011;25777;47.824;18.982;2024-01-15T05:48:16;95.07;;;26.80;;
40076;SDS011;25777;47.824;18.982;2024-01-15T05:50:41;83.70;;;26.27;;
40076;SDS011;25777;47.824;18.982;2024-01-15T05:53:07;88.23;;;24.57;;
40076;SDS011;25777;47.824;18.982;2024-01-15T05:55:34;80.93;;;24.17;;
40076;SDS011;25777;47.824;18.982;2024-01-15T05:58:01;70.70;;;22.33;;
40076;SDS011;25777;47.824;18.982;2024-01-15T06:00:27;66.10;;;21.10;;
40076;SDS011;25777;47.824;18.982;2024-01-15T06:02:52;63.47;;;21.47;;
40076;SDS011;25777;47.824;18.982;2024-01-15T06:05:18;62.77;;;21.23;;
40076;SDS011;25777;47.824;18.982;2024-01-15T06:07:44;54.13;;;20.20;;
40076;SDS011;25777;47.824;18.982;2024-01-15T06:10:10;63.00;;;23.40;;
40076;SDS011;25777;47.824;18.982;2024-01-15T06:12:36;51.73;;;20.50;;
40076;SDS011;25777;47.824;18.982;2024-01-15T06:15:01;53.97;;;19.80;;
40076;SDS011;25777;47.824;18.982;2024-01-15T06:17:27;50.07;;;18.67;;
40076;SDS011;25777;47.824;18.982;2024-01-15T06:19:53;53.13;;;19.93;;
40076;SDS011;25777;47.824;18.982;2024-01-15T06:22:19;50.67;;;18.67;;
40076;SDS011;25777;47.824;18.982;2024-01-15T06:24:45;46.83;;;17.30;;
40076;SDS011;25777;47.824;18.982;2024-01-15T06:27:10;50.90;;;17.30;;
40076;SDS011;25777;47.824;18.982;2024-01-15T06:29:37;44.77;;;17.57;;
40076;SDS011;25777;47.824;18.982;2024-01-15T06:32:04;50.83;;;18.27;;
40076;SDS011;25777;47.824;18.982;2024-01-15T06:34:30;45.43;;;18.73;;
40076;SDS011;25777;47.824;18.982;2024-01-15T06:36:55;48.70;;;18.67;;
40076;SDS011;25777;47.824;18.982;2024-01-15T06:39:21;47.30;;;17.87;;
40076;SDS011;25777;47.824;18.982;2024-01-15T06:41:47;48.87;;;17.97;;
40076;SDS011;25777;47.824;18.982;2024-01-15T06:44:13;44.93;;;17.07;;
40076;SDS011;25777;47.824;18.982;2024-01-15T06:46:42;46.97;;;17.73;;
40076;SDS011;25777;47.824;18.982;2024-01-15T06:49:08;50.17;;;16.53;;
40076;SDS011;25777;47.824;18.982;2024-01-15T06:51:35;54.70;;;17.47;;
40076;SDS011;25777;47.824;18.982;2024-01-15T06:54:01;46.27;;;18.67;;
40076;SDS011;25777;47.824;18.982;2024-01-15T06:56:27;45.27;;;17.50;;
40076;SDS011;25777;47.824;18.982;2024-01-15T06:58:52;48.97;;;18.20;;
40076;SDS011;25777;47.824;18.982;2024-01-15T07:01:18;46.77;;;18.07;;
40076;SDS011;25777;47.824;18.982;2024-01-15T07:03:44;47.40;;;18.03;;
40076;SDS011;25777;47.824;18.982;2024-01-15T07:06:10;45.10;;;17.80;;
40076;SDS011;25777;47.824;18.982;2024-01-15T07:08:36;46.73;;;18.40;;
40076;SDS011;25777;47.824;18.982;2024-01-15T07:11:03;51.23;;;18.77;;
40076;SDS011;25777;47.824;18.982;2024-01-15T07:13:30;45.90;;;17.23;;
40076;SDS011;25777;47.824;18.982;2024-01-15T07:15:56;55.93;;;19.40;;
40076;SDS011;25777;47.824;18.982;2024-01-15T07:18:21;52.53;;;19.83;;
40076;SDS011;25777;47.824;18.982;2024-01-15T07:20:48;56.30;;;21.03;;
40076;SDS011;25777;47.824;18.982;2024-01-15T07:23:14;59.80;;;22.73;;
40076;SDS011;25777;47.824;18.982;2024-01-15T07:25:40;66.63;;;22.73;;
40076;SDS011;25777;47.824;18.982;2024-01-15T07:28:06;66.63;;;21.73;;
40076;SDS011;25777;47.824;18.982;2024-01-15T07:30:31;69.77;;;22.20;;
40076;SDS011;25777;47.824;18.982;2024-01-15T07:32:57;63.80;;;23.40;;
40076;SDS011;25777;47.824;18.982;2024-01-15T07:35:23;71.70;;;24.63;;
40076;SDS011;25777;47.824;18.982;2024-01-15T07:37:49;86.50;;;27.03;;
40076;SDS011;25777;47.824;18.982;2024-01-15T07:40:15;84.80;;;25.27;;
40076;SDS011;25777;47.824;18.982;2024-01-15T07:42:41;92.60;;;29.10;;
40076;SDS011;25777;47.824;18.982;2024-01-15T07:45:08;77.77;;;27.20;;
40076;SDS011;25777;47.824;18.982;2024-01-15T07:47:35;62.80;;;22.73;;
40076;SDS011;25777;47.824;18.982;2024-01-15T07:50:00;59.33;;;20.17;;
40076;SDS011;25777;47.824;18.982;2024-01-15T07:52:26;68.40;;;22.50;;
40076;SDS011;25777;47.824;18.982;2024-01-15T07:54:52;55.23;;;20.77;;
40076;SDS011;25777;47.824;18.982;2024-01-15T07:57:18;61.73;;;23.20;;
40076;SDS011;25777;47.824;18.982;2024-01-15T07:59:43;59.40;;;21.83;;
40076;SDS011;25777;47.824;18.982;2024-01-15T08:02:09;61.37;;;22.27;;
40076;SDS011;25777;47.824;18.982;2024-01-15T08:04:36;58.00;;;20.47;;
40076;SDS011;25777;47.824;18.982;2024-01-15T08:07:03;41.47;;;15.27;;
40076;SDS011;25777;47.824;18.982;2024-01-15T08:09:30;45.10;;;16.83;;
40076;SDS011;25777;47.824;18.982;2024-01-15T08:11:56;47.43;;;16.57;;
40076;SDS011;25777;47.824;18.982;2024-01-15T08:14:22;46.87;;;17.37;;
40076;SDS011;25777;47.824;18.982;2024-01-15T08:16:48;42.63;;;16.13;;
40076;SDS011;25777;47.824;18.982;2024-01-15T08:19:14;48.63;;;16.07;;
40076;SDS011;25777;47.824;18.982;2024-01-15T08:21:40;42.23;;;15.30;;
40076;SDS011;25777;47.824;18.982;2024-01-15T08:24:06;38.73;;;13.93;;
40076;SDS011;25777;47.824;18.982;2024-01-15T08:26:32;32.83;;;12.37;;
40076;SDS011;25777;47.824;18.982;2024-01-15T08:28:57;39.63;;;14.27;;
40076;SDS011;25777;47.824;18.982;2024-01-15T08:31:23;31.03;;;11.63;;
40076;SDS011;25777;47.824;18.982;2024-01-15T08:33:50;37.30;;;12.93;;
40076;SDS011;25777;47.824;18.982;2024-01-15T08:36:15;34.80;;;13.90;;
40076;SDS011;25777;47.824;18.982;2024-01-15T08:38:41;35.20;;;11.67;;
40076;SDS011;25777;47.824;18.982;2024-01-15T08:41:07;28.00;;;12.20;;
40076;SDS011;25777;47.824;18.982;2024-01-15T08:43:34;33.23;;;11.70;;
40076;SDS011;25777;47.824;18.982;2024-01-15T08:46:00;32.20;;;10.57;;
40076;SDS011;25777;47.824;18.982;2024-01-15T08:48:26;26.63;;;11.80;;
40076;SDS011;25777;47.824;18.982;2024-01-15T08:50:53;24.57;;;9.00;;
40076;SDS011;25777;47.824;18.982;2024-01-15T08:53:19;25.83;;;9.47;;
40076;SDS011;25777;47.824;18.982;2024-01-15T08:55:45;24.83;;;10.10;;
40076;SDS011;25777;47.824;18.982;2024-01-15T08:58:11;27.87;;;9.50;;
40076;SDS011;25777;47.824;18.982;2024-01-15T09:00:37;26.13;;;8.97;;
40076;SDS011;25777;47.824;18.982;2024-01-15T09:03:03;24.17;;;8.90;;
40076;SDS011;25777;47.824;18.982;2024-01-15T09:05:29;22.97;;;8.97;;
40076;SDS011;25777;47.824;18.982;2024-01-15T09:07:55;22.33;;;8.47;;
40076;SDS011;25777;47.824;18.982;2024-01-15T09:10:22;29.60;;;9.70;;
40076;SDS011;25777;47.824;18.982;2024-01-15T09:12:49;23.83;;;9.37;;
40076;SDS011;25777;47.824;18.982;2024-01-15T09:15:15;22.70;;;8.70;;
40076;SDS011;25777;47.824;18.982;2024-01-15T09:17:41;21.80;;;8.70;;
40076;SDS011;25777;47.824;18.982;2024-01-15T09:20:08;22.60;;;8.93;;
40076;SDS011;25777;47.824;18.982;2024-01-15T09:22:34;26.10;;;9.70;;
40076;SDS011;25777;47.824;18.982;2024-01-15T09:25:02;23.13;;;8.93;;
40076;SDS011;25777;47.824;18.982;2024-01-15T09:27:29;20.57;;;7.13;;
40076;SDS011;25777;47.824;18.982;2024-01-15T09:29:55;19.57;;;8.57;;
40076;SDS011;25777;47.824;18.982;2024-01-15T09:32:20;21.93;;;8.70;;
40076;SDS011;25777;47.824;18.982;2024-01-15T09:34:46;20.60;;;8.40;;
40076;SDS011;25777;47.824;18.982;2024-01-15T09:37:13;21.63;;;8.53;;
40076;SDS011;25777;47.824;18.982;2024-01-15T09:39:39;22.07;;;7.83;;
40076;SDS011;25777;47.824;18.982;2024-01-15T09:42:06;23.03;;;9.43;;
40076;SDS011;25777;47.824;18.982;2024-01-15T09:44:32;22.40;;;9.10;;
40076;SDS011;25777;47.824;18.982;2024-01-15T09:46:58;21.77;;;8.07;;
40076;SDS011;25777;47.824;18.982;2024-01-15T09:49:24;19.27;;;6.57;;
40076;SDS011;25777;47.824;18.982;2024-01-15T09:51:50;20.00;;;7.50;;
40076;SDS011;25777;47.824;18.982;2024-01-15T09:54:17;19.37;;;7.37;;
40076;SDS011;25777;47.824;18.982;2024-01-15T09:56:46;16.77;;;6.50;;
40076;SDS011;25777;47.824;18.982;2024-01-15T09:59:18;20.87;;;8.77;;
40076;SDS011;25777;47.824;18.982;2024-01-15T10:01:45;24.02;;;8.27;;
40076;SDS011;25777;47.824;18.982;2024-01-15T10:04:12;17.77;;;6.53;;
40076;SDS011;25777;47.824;18.982;2024-01-15T10:06:40;16.53;;;6.60;;
40076;SDS011;25777;47.824;18.982;2024-01-15T10:09:10;21.37;;;8.00;;
40076;SDS011;25777;47.824;18.982;2024-01-15T10:11:42;18.00;;;7.00;;
40076;SDS011;25777;47.824;18.982;2024-01-15T10:14:09;20.03;;;7.60;;
40076;SDS011;25777;47.824;18.982;2024-01-15T10:16:38;14.97;;;6.10;;
40076;SDS011;25777;47.824;18.982;2024-01-15T10:19:04;7.03;;;3.33;;
40076;SDS011;25777;47.824;18.982;2024-01-15T10:21:33;17.13;;;6.43;;
40076;SDS011;25777;47.824;18.982;2024-01-15T10:24:00;15.60;;;5.87;;
40076;SDS011;25777;47.824;18.982;2024-01-15T10:26:26;16.43;;;5.97;;
40076;SDS011;25777;47.824;18.982;2024-01-15T10:28:52;13.47;;;5.73;;
40076;SDS011;25777;47.824;18.982;2024-01-15T10:31:18;14.17;;;5.40;;
40076;SDS011;25777;47.824;18.982;2024-01-15T10:33:50;11.10;;;4.33;;
40076;SDS011;25777;47.824;18.982;2024-01-15T10:36:16;12.40;;;5.13;;
40076;SDS011;25777;47.824;18.982;2024-01-15T10:38:46;10.40;;;3.90;;
40076;SDS011;25777;47.824;18.982;2024-01-15T10:41:12;14.03;;;5.10;;
40076;SDS011;25777;47.824;18.982;2024-01-15T10:43:38;14.60;;;5.43;;
40076;SDS011;25777;47.824;18.982;2024-01-15T10:46:06;12.07;;;4.77;;
40076;SDS011;25777;47.824;18.982;2024-01-15T10:48:32;11.93;;;3.97;;
40076;SDS011;25777;47.824;18.982;2024-01-15T10:51:00;8.67;;;3.90;;
40076;SDS011;25777;47.824;18.982;2024-01-15T10:53:35;12.20;;;4.47;;
40076;SDS011;25777;47.824;18.982;2024-01-15T10:56:07;12.20;;;4.50;;
40076;SDS011;25777;47.824;18.982;2024-01-15T10:58:35;7.03;;;3.27;;
40076;SDS011;25777;47.824;18.982;2024-01-15T11:01:02;10.87;;;4.13;;
40076;SDS011;25777;47.824;18.982;2024-01-15T11:03:29;10.77;;;3.27;;
40076;SDS011;25777;47.824;18.982;2024-01-15T11:05:55;11.60;;;4.10;;
40076;SDS011;25777;47.824;18.982;2024-01-15T11:08:21;11.30;;;4.20;;
40076;SDS011;25777;47.824;18.982;2024-01-15T11:10:50;10.83;;;4.47;;
40076;SDS011;25777;47.824;18.982;2024-01-15T11:16:01;11.67;;;4.63;;
40076;SDS011;25777;47.824;18.982;2024-01-15T11:18:39;12.13;;;4.50;;
40076;SDS011;25777;47.824;18.982;2024-01-15T11:23:41;11.97;;;4.63;;
40076;SDS011;25777;47.824;18.982;2024-01-15T11:28:57;12.00;;;4.80;;
40076;SDS011;25777;47.824;18.982;2024-01-15T11:31:30;12.75;;;4.60;;
40076;SDS011;25777;47.824;18.982;2024-01-15T11:34:15;13.37;;;4.80;;
40076;SDS011;25777;47.824;18.982;2024-01-15T11:42:00;12.77;;;4.40;;
40076;SDS011;25777;47.824;18.982;2024-01-15T11:44:28;9.93;;;3.57;;
40076;SDS011;25777;47.824;18.982;2024-01-15T11:47:00;8.83;;;3.23;;
40076;SDS011;25777;47.824;18.982;2024-01-15T11:52:12;10.67;;;4.10;;
40076;SDS011;25777;47.824;18.982;2024-01-15T11:54:42;12.73;;;5.20;;
40076;SDS011;25777;47.824;18.982;2024-01-15T11:57:36;13.97;;;5.37;;
40076;SDS011;25777;47.824;18.982;2024-01-15T12:00:10;15.50;;;4.33;;
40076;SDS011;25777;47.824;18.982;2024-01-15T12:02:40;6.43;;;2.57;;
40076;SDS011;25777;47.824;18.982;2024-01-15T12:05:07;6.10;;;2.50;;
40076;SDS011;25777;47.824;18.982;2024-01-15T12:07:43;12.53;;;4.87;;
40076;SDS011;25777;47.824;18.982;2024-01-15T12:10:17;12.13;;;4.50;;
40076;SDS011;25777;47.824;18.982;2024-01-15T12:15:22;9.57;;;4.27;;
40076;SDS011;25777;47.824;18.982;2024-01-15T12:17:49;10.03;;;3.80;;
40076;SDS011;25777;47.824;18.982;2024-01-15T12:20:15;7.70;;;3.43;;
40076;SDS011;25777;47.824;18.982;2024-01-15T12:22:43;14.33;;;4.83;;
40076;SDS011;25777;47.824;18.982;2024-01-15T12:25:10;11.43;;;3.67;;
40076;SDS011;25777;47.824;18.982;2024-01-15T12:27:36;8.67;;;3.53;;
40076;SDS011;25777;47.824;18.982;2024-01-15T12:30:02;8.20;;;3.60;;
40076;SDS011;25777;47.824;18.982;2024-01-15T12:32:28;10.23;;;3.70;;
40076;SDS011;25777;47.824;18.982;2024-01-15T12:34:54;10.30;;;4.43;;
40076;SDS011;25777;47.824;18.982;2024-01-15T12:37:20;10.47;;;3.63;;
40076;SDS011;25777;47.824;18.982;2024-01-15T12:39:47;10.47;;;4.03;;
40076;SDS011;25777;47.824;18.982;2024-01-15T12:42:16;9.77;;;4.00;;
40076;SDS011;25777;47.824;18.982;2024-01-15T12:44:42;13.80;;;4.10;;
40076;SDS011;25777;47.824;18.982;2024-01-15T12:47:10;9.53;;;3.37;;
40076;SDS011;25777;47.824;18.982;2024-01-15T12:49:39;8.93;;;3.30;;
40076;SDS011;25777;47.824;18.982;2024-01-15T12:52:07;7.43;;;3.33;;
40076;SDS011;25777;47.824;18.982;2024-01-15T12:54:34;10.17;;;3.50;;
40076;SDS011;25777;47.824;18.982;2024-01-15T12:57:00;5.43;;;2.07;;
40076;SDS011;25777;47.824;18.982;2024-01-15T12:59:26;7.77;;;3.37;;
40076;SDS011;25777;47.824;18.982;2024-01-15T13:01:52;9.03;;;3.27;;
40076;SDS011;25777;47.824;18.982;2024-01-15T13:04:22;6.07;;;2.67;;
40076;SDS011;25777;47.824;18.982;2024-01-15T13:06:49;10.80;;;3.70;;
40076;SDS011;25777;47.824;18.982;2024-01-15T13:09:18;10.90;;;3.33;;
40076;SDS011;25777;47.824;18.982;2024-01-15T13:11:44;9.47;;;3.40;;
40076;SDS011;25777;47.824;18.982;2024-01-15T13:14:11;9.63;;;3.53;;
40076;SDS011;25777;47.824;18.982;2024-01-15T13:16:39;8.90;;;3.70;;
40076;SDS011;25777;47.824;18.982;2024-01-15T13:19:06;10.40;;;3.73;;
40076;SDS011;25777;47.824;18.982;2024-01-15T13:21:36;9.77;;;3.80;;
40076;SDS011;25777;47.824;18.982;2024-01-15T13:24:03;8.23;;;3.00;;
40076;SDS011;25777;47.824;18.982;2024-01-15T13:26:31;8.77;;;3.27;;
40076;SDS011;25777;47.824;18.982;2024-01-15T13:28:59;10.23;;;3.67;;
40076;SDS011;25777;47.824;18.982;2024-01-15T13:31:25;9.90;;;3.47;;
40076;SDS011;25777;47.824;18.982;2024-01-15T13:33:52;10.83;;;4.80;;
40076;SDS011;25777;47.824;18.982;2024-01-15T13:36:17;12.93;;;4.83;;
40076;SDS011;25777;47.824;18.982;2024-01-15T13:38:43;12.90;;;4.87;;
40076;SDS011;25777;47.824;18.982;2024-01-15T13:41:09;14.53;;;5.10;;
40076;SDS011;25777;47.824;18.982;2024-01-15T13:43:35;11.60;;;4.60;;
40076;SDS011;25777;47.824;18.982;2024-01-15T13:46:01;9.00;;;4.37;;
40076;SDS011;25777;47.824;18.982;2024-01-15T13:48:29;10.77;;;3.80;;
40076;SDS011;25777;47.824;18.982;2024-01-15T13:50:56;8.80;;;3.07;;
40076;SDS011;25777;47.824;18.982;2024-01-15T13:53:23;8.77;;;3.40;;
40076;SDS011;25777;47.824;18.982;2024-01-15T13:55:48;8.23;;;2.87;;
40076;SDS011;25777;47.824;18.982;2024-01-15T13:58:14;18.57;;;7.10;;
40076;SDS011;25777;47.824;18.982;2024-01-15T14:00:41;13.83;;;5.47;;
40076;SDS011;25777;47.824;18.982;2024-01-15T14:03:06;88.47;;;46.57;;
40076;SDS011;25777;47.824;18.982;2024-01-15T14:05:33;17.97;;;7.27;;
40076;SDS011;25777;47.824;18.982;2024-01-15T14:07:59;21.80;;;8.40;;
40076;SDS011;25777;47.824;18.982;2024-01-15T14:10:25;14.30;;;5.53;;
40076;SDS011;25777;47.824;18.982;2024-01-15T14:12:51;15.60;;;5.50;;
40076;SDS011;25777;47.824;18.982;2024-01-15T14:15:16;12.27;;;4.30;;
40076;SDS011;25777;47.824;18.982;2024-01-15T14:17:44;16.60;;;5.70;;
40076;SDS011;25777;47.824;18.982;2024-01-15T14:20:10;13.63;;;4.63;;
40076;SDS011;25777;47.824;18.982;2024-01-15T14:22:35;11.20;;;4.00;;
40076;SDS011;25777;47.824;18.982;2024-01-15T14:25:01;11.40;;;4.23;;
40076;SDS011;25777;47.824;18.982;2024-01-15T14:27:27;10.27;;;4.50;;
40076;SDS011;25777;47.824;18.982;2024-01-15T14:29:53;12.00;;;4.43;;